Providenciales の空港の天気 - METARとTAF

プロビデンシャレス国際空港 ( MBPV / PLS ) - タークス・カイコス諸島 Providenciales
飛行場実況気象(Metar)
観測時間08/04 16:00 EDT (08/04 20:00 UTC)
風向・風速南東 3m/s
視程10km以上
天気現象
全天の4割程度の雲 雲底高度 370m
気温31℃
湿度66%
気圧1014hPa
METARMBPV 042000Z 14006KT 9999 SCT012 31/24 Q1014
過去の天気等 Google飛行場航空写真 Wunderground天気予報

過去48時間のMETAR

飛行場予報(TAF)
発表時間: 8/04 12:00 EDT (8/04 16:00 UTC)
予報対象時間: 4日14時 EDT ~ 5日14時 EDT
風向・風速東南東 8m/s
視程10km以上
全天の4割程度の雲 雲底高度 610m
MBPV 041600Z 0418/0518 12015KT 9999 SCT020